Time;durP1;ratioP1;P1;durP2;ratioP2;P2;SDS_P1;SDS_P2;PMS_P1;PMS_P2;Temp;Humidity;BMP_temperature;BMP_pressure;BME280_temperature;BME280_humidity;BME280_pressure;Samples;Min_cycle;Max_cycle;Signal;HPM_P1;HPM_P2
2022/09/14 00:02:05;;;;;;;4.63;2.95;;;15.40;99.90;;;;;;6229093;23;20004;-70
2022/09/14 00:04:31;;;;;;;3.65;2.15;;;15.40;99.90;;;;;;6230583;23;20099;-71
2022/09/14 00:06:56;;;;;;;3.17;2.88;;;15.40;99.90;;;;;;6203863;23;20548;-70
2022/09/14 00:09:23;;;;;;;2.97;2.15;;;15.30;99.90;;;;;;6223809;23;20007;-70
2022/09/14 00:11:50;;;;;;;2.15;1.95;;;15.20;99.90;;;;;;6231610;23;20031;-69
2022/09/14 00:14:16;;;;;;;2.88;2.03;;;15.10;99.90;;;;;;6233664;23;20072;-70
2022/09/14 00:16:43;;;;;;;2.35;1.73;;;15.00;99.90;;;;;;6227672;23;20000;-71
2022/09/14 00:19:19;;;;;;;2.33;1.80;;;15.00;99.90;;;;;;6232695;22;20019;-71
2022/09/14 00:21:45;;;;;;;9.70;2.03;;;14.90;99.90;;;;;;6226747;23;20000;-70
2022/09/14 00:24:11;;;;;;;5.03;2.28;;;14.80;99.90;;;;;;6232398;23;20016;-69
2022/09/14 00:26:37;;;;;;;2.58;2.03;;;14.80;99.90;;;;;;6233101;23;20008;-70
2022/09/14 00:29:03;;;;;;;2.90;1.92;;;14.80;99.90;;;;;;6234206;23;20048;-70
2022/09/14 00:31:34;;;;;;;4.85;1.80;;;14.80;99.90;;;;;;6231804;23;20086;-69
2022/09/14 00:34:01;;;;;;;2.53;2.15;;;14.80;99.90;;;;;;6231129;23;20027;-70
2022/09/14 00:36:28;;;;;;;4.97;2.13;;;14.80;99.90;;;;;;6235824;23;20495;-70
2022/09/14 00:38:55;;;;;;;4.05;2.38;;;14.80;99.90;;;;;;6233103;23;20050;-70
2022/09/14 00:41:28;;;;;;;2.55;2.28;;;14.80;99.90;;;;;;6231570;23;20528;-70
2022/09/14 00:44:02;;;;;;;;;;;14.80;99.90;;;;;;6234385;23;20001;-69
2022/09/14 00:46:30;;;;;;;3.88;1.90;;;14.80;99.90;;;;;;6233757;23;20622;-69
2022/09/14 00:48:59;;;;;;;2.65;2.17;;;14.80;99.90;;;;;;6233396;23;20004;-69
2022/09/14 00:51:25;;;;;;;2.80;2.55;;;14.80;99.90;;;;;;6231249;23;20107;-69
2022/09/14 00:53:51;;;;;;;3.75;2.22;;;14.80;99.90;;;;;;6230521;23;20005;-68
2022/09/14 00:56:17;;;;;;;2.55;2.17;;;14.80;99.90;;;;;;6231837;23;20032;-69
2022/09/14 00:58:44;;;;;;;5.60;2.40;;;14.80;99.90;;;;;;6233889;23;20410;-70
2022/09/14 01:01:10;;;;;;;4.18;2.70;;;14.80;99.90;;;;;;6234478;23;20094;-70
2022/09/14 01:03:36;;;;;;;2.60;2.20;;;14.80;99.90;;;;;;6230504;23;20440;-70
2022/09/14 01:06:32;;;;;;;4.32;2.50;;;14.80;99.90;;;;;;6233664;23;20000;-71
2022/09/14 01:09:34;;;;;;;3.08;1.90;;;14.70;99.90;;;;;;6227505;23;20005;-70
2022/09/14 01:12:06;;;;;;;2.78;2.47;;;14.70;99.90;;;;;;6226758;23;20563;-70
2022/09/14 01:14:39;;;;;;;;;;;14.70;99.90;;;;;;6235152;23;20027;-70
2022/09/14 01:17:21;;;;;;;8.93;2.85;;;14.70;99.90;;;;;;6234126;23;19900;-70
2022/09/14 01:20:05;;;;;;;5.35;3.00;;;14.70;99.90;;;;;;6229374;22;20031;-70
2022/09/14 01:22:47;;;;;;;3.22;2.72;;;14.70;99.90;;;;;;6234773;23;20392;-70
2022/09/14 01:25:20;;;;;;;2.85;2.40;;;14.70;99.90;;;;;;6235777;23;20010;-70
2022/09/14 01:27:48;;;;;;;3.10;2.50;;;14.70;99.90;;;;;;6234943;23;20329;-70
2022/09/14 01:30:21;;;;;;;3.72;2.53;;;14.80;99.90;;;;;;6233762;23;19996;-71
2022/09/14 01:33:13;;;;;;;7.05;2.40;;;14.80;99.90;;;;;;6207591;23;20019;-69
2022/09/14 01:35:49;;;;;;;64.47;7.53;;;14.80;99.90;;;;;;6234123;23;20000;-69
2022/09/14 01:38:40;;;;;;;6.63;2.63;;;14.80;99.90;;;;;;6234890;23;20727;-69
2022/09/14 01:41:10;;;;;;;54.75;6.57;;;14.80;99.90;;;;;;6231603;23;20008;-69
2022/09/14 01:43:47;;;;;;;6.38;2.85;;;14.80;99.90;;;;;;6231241;23;20074;-69
2022/09/14 01:46:17;;;;;;;4.80;2.53;;;14.80;99.90;;;;;;6233472;23;20007;-69
2022/09/14 01:48:49;;;;;;;4.35;2.50;;;14.80;99.90;;;;;;6234755;23;20099;-69
2022/09/14 01:51:34;;;;;;;3.42;2.58;;;14.80;99.90;;;;;;6233348;23;20420;-69
2022/09/14 01:54:08;;;;;;;3.03;2.45;;;14.80;99.90;;;;;;6235357;23;20038;-69
2022/09/14 01:56:40;;;;;;;4.20;2.80;;;14.80;99.90;;;;;;6233397;23;20008;-69
2022/09/14 01:59:27;;;;;;;3.10;2.80;;;14.80;99.90;;;;;;6235245;23;20445;-69
2022/09/14 02:02:01;;;;;;;4.43;2.83;;;14.90;99.90;;;;;;6229746;23;20016;-69
2022/09/14 02:04:47;;;;;;;5.28;2.83;;;14.90;99.90;;;;;;6231512;23;20036;-69
2022/09/14 02:07:14;;;;;;;4.18;2.92;;;14.80;99.90;;;;;;6208940;23;20012;-69
2022/09/14 02:09:40;;;;;;;5.13;3.13;;;14.80;99.90;;;;;;6230646;23;20075;-69
2022/09/14 02:12:06;;;;;;;3.10;2.80;;;14.80;99.90;;;;;;6234635;23;20065;-69
2022/09/14 02:14:32;;;;;;;7.25;2.58;;;14.80;99.90;;;;;;6234719;23;20327;-69
2022/09/14 02:16:58;;;;;;;3.22;2.55;;;14.80;99.90;;;;;;6224693;23;20004;-69
2022/09/14 02:19:25;;;;;;;3.05;2.33;;;14.70;99.90;;;;;;6231505;22;20008;-69
2022/09/14 02:21:51;;;;;;;6.35;3.00;;;14.80;99.90;;;;;;6230662;23;20434;-69
2022/09/14 02:24:17;;;;;;;4.50;2.53;;;14.70;99.90;;;;;;6232370;23;20008;-69
2022/09/14 02:26:43;;;;;;;3.05;2.65;;;14.60;99.90;;;;;;6228983;23;20421;-69
2022/09/14 02:29:09;;;;;;;3.78;2.72;;;14.60;99.90;;;;;;6234271;23;20050;-69
2022/09/14 02:32:02;;;;;;;4.68;2.67;;;14.60;99.90;;;;;;6232345;23;20012;-69
2022/09/14 02:34:52;;;;;;;3.08;2.60;;;14.50;99.90;;;;;;6232787;23;20000;-69
2022/09/14 02:37:20;;;;;;;2.97;2.67;;;14.50;99.90;;;;;;6231336;23;20000;-69
2022/09/14 02:40:04;;;;;;;3.72;2.45;;;14.50;99.90;;;;;;6232102;23;20007;-69
2022/09/14 02:42:54;;;;;;;3.88;2.53;;;14.50;99.90;;;;;;6205369;23;20008;-69
2022/09/14 02:45:23;;;;;;;3.30;2.42;;;14.50;99.90;;;;;;6205532;23;20011;-69
2022/09/14 02:47:54;;;;;;;5.65;2.65;;;14.50;99.90;;;;;;6231353;23;20062;-70
2022/09/14 02:50:19;;;;;;;7.10;2.78;;;14.50;99.90;;;;;;6231866;23;20004;-70
2022/09/14 02:52:57;;;;;;;4.22;2.60;;;14.60;99.90;;;;;;6233012;23;20062;-70
2022/09/14 02:55:28;;;;;;;2.47;2.28;;;14.60;99.90;;;;;;6231392;23;20501;-70
2022/09/14 02:58:06;;;;;;;3.20;2.65;;;14.50;99.90;;;;;;6229093;23;20008;-70
2022/09/14 03:00:35;;;;;;;7.43;3.15;;;14.50;99.90;;;;;;6231978;23;20090;-70
2022/09/14 03:03:02;;;;;;;3.95;2.78;;;14.60;99.90;;;;;;6231783;23;20004;-70
2022/09/14 03:05:28;;;;;;;5.00;2.67;;;14.70;99.90;;;;;;6229986;23;20008;-70
2022/09/14 03:07:54;;;;;;;3.97;2.88;;;14.80;99.90;;;;;;6228713;23;20388;-70
2022/09/14 03:10:19;;;;;;;5.80;3.05;;;14.80;99.90;;;;;;6205339;23;20008;-70
2022/09/14 03:12:45;;;;;;;5.97;2.85;;;14.90;99.90;;;;;;6229573;23;20425;-70
2022/09/14 03:15:11;;;;;;;3.85;2.70;;;15.00;99.90;;;;;;6229405;23;20686;-70
2022/09/14 03:17:36;;;;;;;4.97;3.00;;;15.10;99.90;;;;;;6229179;23;20016;-70
2022/09/14 03:20:03;;;;;;;9.18;2.63;;;15.10;99.90;;;;;;6229688;22;20016;-70
2022/09/14 03:22:29;;;;;;;5.00;2.63;;;15.20;99.90;;;;;;6228759;23;20107;-70
2022/09/14 03:24:54;;;;;;;3.35;2.60;;;15.30;99.90;;;;;;6232253;23;20566;-70
2022/09/14 03:27:20;;;;;;;4.70;2.28;;;15.30;99.90;;;;;;6229947;23;20012;-70
2022/09/14 03:29:46;;;;;;;6.97;2.75;;;15.40;99.90;;;;;;6232611;23;20385;-70
2022/09/14 03:32:11;;;;;;;2.92;2.47;;;15.40;99.90;;;;;;6234444;23;20092;-70
2022/09/14 03:34:37;;;;;;;4.65;2.75;;;15.50;99.90;;;;;;6207325;23;20008;-70
2022/09/14 03:37:02;;;;;;;4.88;2.50;;;15.50;99.90;;;;;;6232541;23;20062;-70
2022/09/14 03:39:28;;;;;;;4.07;2.33;;;15.50;99.90;;;;;;6234203;23;20755;-70
2022/09/14 03:41:54;;;;;;;6.38;2.55;;;15.50;99.90;;;;;;6232699;23;20000;-70
2022/09/14 03:44:19;;;;;;;3.92;2.20;;;15.50;99.90;;;;;;6234788;23;20007;-70
2022/09/14 03:46:45;;;;;;;3.95;2.08;;;15.50;99.90;;;;;;6233736;23;20011;-70
2022/09/14 03:49:11;;;;;;;5.00;2.33;;;15.50;99.90;;;;;;6232308;23;20005;-70
2022/09/14 03:51:36;;;;;;;3.80;2.55;;;15.40;99.90;;;;;;6234666;23;20052;-70
2022/09/14 03:54:02;;;;;;;5.60;2.67;;;15.40;99.90;;;;;;6232956;23;20100;-70
2022/09/14 03:56:28;;;;;;;4.90;2.33;;;15.40;99.90;;;;;;6234141;23;20614;-70
2022/09/14 03:58:53;;;;;;;4.22;2.35;;;15.50;99.90;;;;;;6231697;23;20004;-70
2022/09/14 04:01:21;;;;;;;3.33;2.67;;;15.50;99.90;;;;;;6233668;23;20406;-70
2022/09/14 04:03:47;;;;;;;5.43;2.40;;;15.50;99.90;;;;;;6232618;23;20050;-70
2022/09/14 04:06:14;;;;;;;4.00;2.20;;;15.50;99.90;;;;;;6230964;23;20007;-71
2022/09/14 04:08:41;;;;;;;4.45;2.70;;;15.50;99.90;;;;;;6231374;23;20854;-71
2022/09/14 04:11:17;;;;;;;6.07;2.33;;;15.50;99.90;;;;;;6233569;23;20012;-71
2022/09/14 04:13:43;;;;;;;3.00;2.63;;;15.50;99.90;;;;;;6232053;23;20031;-71
2022/09/14 04:16:09;;;;;;;5.20;2.13;;;15.50;99.90;;;;;;6231236;23;20580;-71
2022/09/14 04:18:35;;;;;;;4.43;2.30;;;15.50;99.90;;;;;;6234750;22;20012;-71
2022/09/14 04:21:07;;;;;;;7.45;2.50;;;15.50;99.90;;;;;;6227688;23;20166;-72
2022/09/14 04:23:33;;;;;;;4.95;2.63;;;15.50;99.90;;;;;;6232555;23;20059;-70
2022/09/14 04:25:59;;;;;;;4.20;2.40;;;15.40;99.90;;;;;;6227509;23;20086;-70
2022/09/14 04:28:25;;;;;;;3.42;2.50;;;15.40;99.90;;;;;;6235083;23;20007;-70
2022/09/14 04:30:58;;;;;;;5.35;2.67;;;15.40;99.90;;;;;;6232338;23;20004;-70
2022/09/14 04:33:24;;;;;;;4.25;2.33;;;15.40;99.90;;;;;;6203147;23;20476;-70
2022/09/14 04:35:58;;;;;;;5.00;1.92;;;15.30;99.90;;;;;;6229038;23;20007;-71
2022/09/14 04:38:24;;;;;;;7.50;2.20;;;15.30;99.90;;;;;;6234241;23;20004;-71
2022/09/14 04:40:50;;;;;;;5.18;2.40;;;15.20;99.90;;;;;;6233054;23;20353;-71
2022/09/14 04:43:15;;;;;;;4.13;2.05;;;15.20;99.90;;;;;;6232196;23;20266;-71
2022/09/14 04:45:41;;;;;;;4.97;2.88;;;15.10;99.90;;;;;;6232952;23;20078;-71
2022/09/14 04:48:07;;;;;;;4.82;2.22;;;15.10;99.90;;;;;;6207920;23;20589;-71
2022/09/14 04:50:33;;;;;;;3.28;2.50;;;15.00;99.90;;;;;;6227090;23;20509;-71
2022/09/14 04:52:59;;;;;;;4.68;2.20;;;15.00;99.90;;;;;;6231545;23;20008;-71
2022/09/14 04:55:26;;;;;;;3.20;2.65;;;15.00;99.90;;;;;;6233100;23;20007;-71
2022/09/14 04:57:52;;;;;;;4.93;2.78;;;15.10;99.90;;;;;;6232810;23;20007;-71
2022/09/14 05:00:18;;;;;;;5.00;2.33;;;15.20;99.90;;;;;;6223746;23;20439;-70
2022/09/14 05:02:43;;;;;;;6.57;2.70;;;15.20;99.90;;;;;;6228074;23;19999;-71
2022/09/14 05:05:09;;;;;;;3.05;2.25;;;15.20;99.90;;;;;;6227667;23;20057;-71
2022/09/14 05:07:35;;;;;;;3.35;2.40;;;15.30;99.90;;;;;;6225723;23;20388;-71
2022/09/14 05:10:00;;;;;;;3.50;2.50;;;15.30;99.90;;;;;;6229538;23;20047;-71
2022/09/14 05:12:26;;;;;;;4.43;2.58;;;15.30;99.90;;;;;;6200928;23;20015;-72
2022/09/14 05:14:52;;;;;;;4.57;2.42;;;15.40;99.90;;;;;;6228649;23;20007;-71
2022/09/14 05:17:17;;;;;;;3.15;2.55;;;15.50;99.90;;;;;;6203250;23;20008;-71
2022/09/14 05:19:43;;;;;;;3.40;2.33;;;15.50;99.90;;;;;;6234396;22;20043;-71
2022/09/14 05:22:08;;;;;;;6.38;2.40;;;15.60;99.90;;;;;;6233062;23;20379;-71
2022/09/14 05:24:34;;;;;;;5.78;2.15;;;15.60;99.90;;;;;;6233014;23;20000;-72
2022/09/14 05:26:59;;;;;;;10.80;2.58;;;15.70;99.90;;;;;;6227840;23;20004;-71
2022/09/14 05:29:25;;;;;;;5.15;2.50;;;15.80;99.90;;;;;;6231607;23;20066;-70
2022/09/14 05:31:51;;;;;;;4.80;2.35;;;15.80;99.90;;;;;;6231907;23;20012;-71
2022/09/14 05:34:17;;;;;;;7.70;2.60;;;15.90;99.90;;;;;;6235415;23;20603;-70
2022/09/14 05:36:42;;;;;;;4.78;2.33;;;15.90;99.90;;;;;;6230325;23;20010;-70
2022/09/14 05:39:08;;;;;;;4.85;2.63;;;16.00;99.90;;;;;;6233775;23;20401;-69
2022/09/14 05:41:34;;;;;;;9.75;3.03;;;16.10;99.90;;;;;;6229642;23;20008;-71
2022/09/14 05:44:00;;;;;;;8.18;2.47;;;16.20;99.90;;;;;;6234176;23;20072;-72
2022/09/14 05:46:25;;;;;;;4.57;2.58;;;16.20;99.90;;;;;;6234766;23;20329;-71
2022/09/14 05:48:51;;;;;;;6.90;2.10;;;16.20;99.90;;;;;;6236343;23;20007;-71
2022/09/14 05:51:19;;;;;;;5.03;2.47;;;16.20;99.90;;;;;;6233629;23;20066;-72
2022/09/14 05:53:55;;;;;;;5.93;2.45;;;16.20;99.90;;;;;;6235492;23;20318;-72
2022/09/14 05:56:23;;;;;;;4.07;1.95;;;16.10;99.90;;;;;;6234265;23;20035;-72
2022/09/14 05:58:49;;;;;;;5.80;2.83;;;16.10;99.90;;;;;;6236205;23;20023;-70
2022/09/14 06:01:21;;;;;;;4.05;2.60;;;16.10;99.90;;;;;;6231689;23;20061;-69
2022/09/14 06:03:48;;;;;;;10.90;2.75;;;16.20;99.90;;;;;;6233234;23;20012;-70
2022/09/14 06:06:16;;;;;;;5.75;2.50;;;16.20;99.90;;;;;;6233688;23;20004;-70
2022/09/14 06:08:42;;;;;;;4.25;2.70;;;16.30;99.90;;;;;;6235169;23;20069;-70
2022/09/14 06:11:14;;;;;;;8.80;3.05;;;16.30;99.90;;;;;;6233142;23;20091;-68
2022/09/14 06:13:40;;;;;;;15.48;3.00;;;16.40;99.90;;;;;;6233438;23;20014;-70
2022/09/14 06:16:11;;;;;;;3.70;2.67;;;16.40;99.90;;;;;;6232976;23;20004;-70
2022/09/14 06:18:38;;;;;;;4.85;2.33;;;16.40;99.90;;;;;;6234990;22;20012;-70
2022/09/14 06:21:04;;;;;;;4.45;2.42;;;16.50;99.90;;;;;;6233451;23;20016;-70
2022/09/14 06:23:31;;;;;;;3.40;2.50;;;16.50;99.90;;;;;;6209830;23;20055;-70
2022/09/14 06:25:58;;;;;;;5.35;3.00;;;16.50;99.90;;;;;;6236770;23;20392;-70
2022/09/14 06:28:25;;;;;;;9.27;2.70;;;16.60;99.90;;;;;;6235930;23;20058;-70
2022/09/14 06:30:51;;;;;;;5.68;2.47;;;16.50;99.90;;;;;;6232582;23;20008;-70
2022/09/14 06:33:18;;;;;;;4.38;2.50;;;16.50;99.90;;;;;;6235334;23;20008;-70
2022/09/14 06:35:56;;;;;;;3.22;2.60;;;16.50;99.90;;;;;;6235231;23;19996;-70
2022/09/14 06:38:22;;;;;;;4.22;2.58;;;16.60;99.90;;;;;;6235000;23;20061;-70
2022/09/14 06:40:55;;;;;;;5.13;2.83;;;16.70;99.90;;;;;;6236269;23;20079;-70
2022/09/14 06:43:22;;;;;;;3.90;2.88;;;16.70;99.90;;;;;;6235299;23;20008;-70
2022/09/14 06:46:00;;;;;;;5.72;3.20;;;16.70;99.90;;;;;;6234217;23;20000;-70
2022/09/14 06:48:27;;;;;;;6.07;3.10;;;16.60;99.90;;;;;;6233692;23;20011;-70
2022/09/14 06:50:53;;;;;;;4.43;3.30;;;16.70;99.90;;;;;;6232112;23;20079;-70
2022/09/14 06:53:18;;;;;;;5.07;2.90;;;16.80;99.90;;;;;;6235518;23;20571;-70
2022/09/14 06:55:44;;;;;;;8.00;3.50;;;16.80;99.90;;;;;;6235549;23;20035;-70
2022/09/14 06:58:10;;;;;;;7.13;3.65;;;16.90;99.90;;;;;;6234957;23;20890;-70
2022/09/14 07:00:36;;;;;;;3.33;2.80;;;17.00;99.90;;;;;;6231612;23;20242;-70
2022/09/14 07:03:02;;;;;;;4.30;2.80;;;17.00;99.90;;;;;;6206028;23;20481;-69
2022/09/14 07:05:29;;;;;;;4.00;2.97;;;17.00;99.90;;;;;;6231460;23;20010;-70
2022/09/14 07:07:55;;;;;;;4.55;2.55;;;17.10;99.90;;;;;;6234438;23;20004;-70
2022/09/14 07:10:21;;;;;;;5.00;2.63;;;17.10;99.90;;;;;;6234307;23;20000;-70
2022/09/14 07:12:47;;;;;;;6.85;2.92;;;17.10;99.90;;;;;;6232142;23;20389;-70
2022/09/14 07:15:13;;;;;;;4.53;2.88;;;17.20;99.90;;;;;;6205687;23;20004;-70
2022/09/14 07:17:38;;;;;;;4.22;2.80;;;17.20;99.90;;;;;;6234923;23;20007;-70
2022/09/14 07:20:06;;;;;;;4.10;2.38;;;17.10;99.90;;;;;;6233444;22;20008;-70
2022/09/14 07:22:33;;;;;;;6.10;3.35;;;17.10;99.90;;;;;;6206313;23;20004;-70
2022/09/14 07:24:58;;;;;;;4.50;2.92;;;17.10;99.90;;;;;;6235983;23;20011;-70
2022/09/14 07:27:24;;;;;;;5.65;2.65;;;17.20;99.90;;;;;;6206847;23;20079;-70
2022/09/14 07:29:50;;;;;;;4.03;2.50;;;17.20;99.90;;;;;;6234180;23;20008;-69
2022/09/14 07:32:16;;;;;;;5.93;2.45;;;17.20;99.90;;;;;;6235161;23;20091;-70
2022/09/14 07:34:41;;;;;;;7.40;3.00;;;17.20;99.90;;;;;;6233565;23;20016;-70
2022/09/14 07:37:07;;;;;;;8.32;2.28;;;17.30;99.90;;;;;;6233323;23;20012;-70
2022/09/14 07:39:32;;;;;;;3.45;2.40;;;17.40;99.90;;;;;;6234873;23;20000;-70
2022/09/14 07:41:58;;;;;;;4.70;2.20;;;17.40;99.90;;;;;;6234673;23;20058;-70
2022/09/14 07:44:25;;;;;;;3.38;2.15;;;17.50;99.90;;;;;;6234259;23;20007;-70
2022/09/14 07:46:50;;;;;;;6.30;2.25;;;17.50;99.90;;;;;;6230615;23;20004;-70
2022/09/14 07:49:16;;;;;;;8.88;2.58;;;17.50;99.90;;;;;;6233868;23;20007;-70
2022/09/14 07:51:42;;;;;;;6.05;2.50;;;17.50;99.90;;;;;;6233524;23;20404;-70
2022/09/14 07:54:11;;;;;;;3.22;2.00;;;17.60;99.90;;;;;;6231685;23;20054;-70
2022/09/14 07:56:37;;;;;;;4.47;2.17;;;17.60;99.90;;;;;;6230764;23;20004;-70
2022/09/14 07:59:04;;;;;;;7.30;2.58;;;17.60;99.90;;;;;;6233023;23;20065;-70
2022/09/14 08:01:30;;;;;;;3.88;2.40;;;17.60;99.90;;;;;;6232725;23;20629;-70
2022/09/14 08:04:01;;;;;;;2.70;1.95;;;17.70;99.90;;;;;;6234581;23;20645;-70
2022/09/14 08:06:27;;;;;;;3.25;2.00;;;17.70;99.90;;;;;;6229360;23;20094;-70
2022/09/14 08:08:53;;;;;;;3.78;2.13;;;17.70;99.90;;;;;;6229473;23;20008;-70
2022/09/14 08:11:28;;;;;;;5.53;2.58;;;17.80;99.90;;;;;;6230138;23;20016;-70
2022/09/14 08:14:10;;;;;;;3.10;2.08;;;17.80;99.90;;;;;;6232042;23;20137;-70
2022/09/14 08:16:37;;;;;;;5.93;2.38;;;17.70;99.90;;;;;;6234260;23;20008;-70
2022/09/14 08:19:05;;;;;;;3.60;2.30;;;17.80;99.90;;;;;;6233708;22;20019;-70
2022/09/14 08:21:32;;;;;;;4.25;2.53;;;17.80;99.90;;;;;;6233201;23;20011;-70
2022/09/14 08:24:01;;;;;;;4.55;2.60;;;17.80;99.90;;;;;;6235631;23;20012;-69
2022/09/14 08:26:27;;;;;;;3.03;2.65;;;17.90;99.90;;;;;;6234748;23;20334;-70
2022/09/14 08:28:54;;;;;;;7.60;3.30;;;17.90;99.90;;;;;;6230100;23;20055;-70
2022/09/14 08:31:22;;;;;;;3.70;2.85;;;18.00;99.90;;;;;;6234564;23;20015;-69
2022/09/14 08:33:54;;;;;;;5.07;3.35;;;17.90;99.90;;;;;;6234730;23;20299;-70
2022/09/14 08:36:21;;;;;;;4.55;3.58;;;17.90;99.90;;;;;;6233260;23;20032;-70
2022/09/14 08:38:47;;;;;;;4.50;3.47;;;18.00;99.90;;;;;;6234676;23;20016;-70
2022/09/14 08:41:27;;;;;;;3.35;2.95;;;17.90;99.90;;;;;;6234922;23;20054;-70
2022/09/14 08:43:53;;;;;;;4.15;3.40;;;17.90;99.90;;;;;;6206258;23;20042;-70
2022/09/14 08:46:33;;;;;;;5.30;3.22;;;17.90;99.90;;;;;;6230372;23;20008;-70
2022/09/14 08:49:01;;;;;;;3.78;3.35;;;18.00;99.90;;;;;;6229839;23;20007;-70
2022/09/14 08:51:27;;;;;;;9.02;3.30;;;17.90;99.90;;;;;;6231336;23;20091;-70
2022/09/14 08:53:55;;;;;;;6.07;3.13;;;17.80;99.90;;;;;;6235117;23;20028;-70
2022/09/14 08:56:25;;;;;;;4.90;2.92;;;17.90;99.90;;;;;;6234053;23;20095;-70
2022/09/14 08:59:24;;;;;;;3.80;2.90;;;18.00;99.90;;;;;;6236386;23;20004;-70
2022/09/14 09:01:58;;;;;;;4.07;2.90;;;18.10;99.90;;;;;;6235351;23;20738;-70
2022/09/14 09:04:36;;;;;;;4.95;2.88;;;18.20;99.90;;;;;;6233236;23;20011;-70
2022/09/14 09:07:20;;;;;;;7.70;2.88;;;18.10;99.90;;;;;;6234098;23;20008;-69
2022/09/14 09:09:49;;;;;;;4.15;3.03;;;18.20;99.90;;;;;;6232713;23;20000;-72
2022/09/14 09:12:28;;;;;;;5.75;3.10;;;18.30;99.90;;;;;;6233052;23;20370;-72
2022/09/14 09:15:00;;;;;;;5.15;3.25;;;18.30;99.90;;;;;;6235203;23;20000;-72
2022/09/14 09:17:30;;;;;;;4.63;3.13;;;18.30;99.90;;;;;;6234746;23;20015;-72
2022/09/14 09:20:11;;;;;;;3.97;2.88;;;18.40;99.90;;;;;;6232799;22;20438;-72
2022/09/14 09:23:00;;;;;;;4.50;3.05;;;18.30;99.90;;;;;;6231618;23;20012;-72
2022/09/14 09:25:38;;;;;;;4.57;2.88;;;18.30;99.90;;;;;;6218919;23;20008;-72
2022/09/14 09:28:11;;;;;;;6.75;3.30;;;18.30;99.90;;;;;;6231325;23;20346;-72
2022/09/14 09:30:40;;;;;;;3.72;3.15;;;18.20;99.90;;;;;;6234928;23;20004;-72
2022/09/14 09:33:06;;;;;;;4.28;3.30;;;18.20;99.90;;;;;;6234047;23;20070;-73
2022/09/14 09:35:32;;;;;;;6.03;3.33;;;18.10;99.90;;;;;;6236183;23;20008;-72
2022/09/14 09:37:58;;;;;;;3.53;3.22;;;18.10;99.90;;;;;;6235665;23;20007;-72
2022/09/14 09:40:49;;;;;;;4.05;2.92;;;18.10;99.90;;;;;;6237049;23;20000;-72
2022/09/14 09:43:17;;;;;;;3.65;2.88;;;18.20;99.90;;;;;;6218519;23;20397;-72
2022/09/14 09:45:48;;;;;;;7.18;3.30;;;18.30;99.90;;;;;;6235359;23;20000;-72
2022/09/14 09:48:17;;;;;;;4.15;2.80;;;18.30;99.90;;;;;;6235709;23;20007;-72
2022/09/14 09:51:02;;;;;;;4.95;3.13;;;18.40;99.90;;;;;;6234393;23;20122;-72
2022/09/14 09:53:28;;;;;;;4.35;3.00;;;18.30;99.90;;;;;;6236142;23;20015;-71
2022/09/14 09:55:55;;;;;;;3.45;3.15;;;18.40;99.90;;;;;;6233802;23;20000;-72
2022/09/14 09:58:35;;;;;;;5.00;3.65;;;18.40;99.90;;;;;;6236405;23;20004;-72
2022/09/14 10:01:07;;;;;;;5.88;3.50;;;18.40;99.90;;;;;;6232471;23;20012;-72
2022/09/14 10:03:36;;;;;;;4.45;3.35;;;18.50;99.90;;;;;;6237425;23;20000;-72
2022/09/14 10:06:08;;;;;;;5.50;3.30;;;18.50;99.90;;;;;;6232846;23;20032;-72
2022/09/14 10:08:41;;;;;;;5.22;4.15;;;18.50;99.90;;;;;;6234234;23;20011;-72
2022/09/14 10:11:31;;;;;;;8.35;3.47;;;18.60;99.90;;;;;;6233337;23;19996;-72
2022/09/14 10:13:57;;;;;;;4.78;3.33;;;18.60;99.90;;;;;;6236776;23;20427;-72
2022/09/14 10:16:24;;;;;;;4.07;3.67;;;18.60;99.90;;;;;;6230008;23;20315;-71
2022/09/14 10:18:51;;;;;;;4.05;3.65;;;18.60;99.90;;;;;;6203857;23;20016;-71
2022/09/14 10:21:20;;;;;;;3.97;3.42;;;18.60;99.90;;;;;;6233141;23;20012;-71
2022/09/14 10:23:46;;;;;;;3.50;3.20;;;18.60;99.90;;;;;;6232752;23;20446;-71
2022/09/14 10:26:12;;;;;;;6.05;3.40;;;18.50;99.90;;;;;;6232326;23;20008;-71
2022/09/14 10:28:43;;;;;;;4.35;3.58;;;18.60;99.90;;;;;;6235641;23;20012;-71
2022/09/14 10:31:16;;;;;;;6.77;3.50;;;18.60;99.90;;;;;;6235229;23;20011;-72
2022/09/14 10:33:43;;;;;;;5.70;3.70;;;18.60;99.90;;;;;;6233132;23;20295;-71
2022/09/14 10:36:29;;;;;;;3.35;3.03;;;18.60;99.90;;;;;;6230635;23;20004;-71
2022/09/14 10:39:25;;;;;;;4.82;3.40;;;18.60;99.90;;;;;;6232970;23;19996;-71
2022/09/14 10:42:03;;;;;;;6.97;3.25;;;18.70;99.90;;;;;;6230299;23;20485;-71
2022/09/14 10:44:47;;;;;;;7.78;4.05;;;18.70;99.90;;;;;;6205131;23;20004;-71
2022/09/14 10:47:31;;;;;;;3.72;3.30;;;18.70;99.90;;;;;;6233908;23;20000;-71
2022/09/14 10:50:27;;;;;;;4.65;3.13;;;18.80;99.90;;;;;;6235631;23;20010;-71
2022/09/14 10:53:15;;;;;;;7.60;3.58;;;18.80;99.90;;;;;;6236092;23;20015;-72
2022/09/14 10:55:50;;;;;;;3.65;3.22;;;18.90;99.90;;;;;;6234693;23;19997;-71
2022/09/14 10:58:26;;;;;;;4.28;3.83;;;18.90;99.90;;;;;;6237175;23;20004;-71
2022/09/14 11:01:16;;;;;;;4.88;3.60;;;18.90;99.90;;;;;;6233071;23;20533;-72
2022/09/14 11:04:12;;;;;;;8.35;3.53;;;19.00;99.90;;;;;;6235772;23;20015;-72
2022/09/14 11:06:56;;;;;;;4.40;3.42;;;18.90;99.90;;;;;;6233208;23;20000;-72
2022/09/14 11:09:27;;;;;;;6.75;4.10;;;18.90;99.90;;;;;;6233643;23;20007;-71
2022/09/14 11:12:18;;;;;;;5.00;3.50;;;19.00;99.90;;;;;;6234311;23;20011;-72
2022/09/14 11:14:56;;;;;;;4.65;3.83;;;19.00;99.90;;;;;;6231070;23;20010;-72
2022/09/14 11:17:34;;;;;;;6.82;3.85;;;19.00;99.90;;;;;;6228356;23;20559;-73
2022/09/14 11:20:05;;;;;;;5.65;3.45;;;18.90;99.90;;;;;;6230211;22;20457;-73
2022/09/14 11:22:45;;;;;;;6.45;3.92;;;19.00;99.90;;;;;;6232820;23;20004;-73
2022/09/14 11:25:25;;;;;;;7.38;3.85;;;19.10;99.90;;;;;;6232266;23;20008;-74
2022/09/14 11:27:56;;;;;;;5.43;4.03;;;19.20;99.90;;;;;;6201768;23;20019;-73
2022/09/14 11:30:29;;;;;;;5.53;4.45;;;19.20;99.90;;;;;;6232549;23;20008;-73
2022/09/14 11:33:06;;;;;;;4.68;3.80;;;19.30;99.90;;;;;;6231366;23;20014;-72
2022/09/14 11:35:51;;;;;;;5.07;4.18;;;19.30;99.90;;;;;;6234320;23;20056;-73
2022/09/14 11:38:20;;;;;;;5.60;3.88;;;19.40;99.90;;;;;;6235762;23;20008;-73
2022/09/14 11:40:55;;;;;;;6.32;4.07;;;19.40;99.90;;;;;;6234604;23;20676;-73
2022/09/14 11:43:44;;;;;;;4.95;3.97;;;19.50;99.90;;;;;;6232081;23;20007;-73
2022/09/14 11:46:14;;;;;;;4.60;3.60;;;19.40;99.90;;;;;;6232305;23;20075;-73
2022/09/14 11:48:50;;;;;;;7.70;4.35;;;19.50;99.90;;;;;;6235486;23;20000;-73
2022/09/14 11:51:23;;;;;;;6.65;4.05;;;19.60;99.90;;;;;;6233361;23;20532;-73
2022/09/14 11:53:49;;;;;;;6.20;4.28;;;19.60;99.90;;;;;;6235405;23;20417;-73
2022/09/14 11:56:27;;;;;;;5.10;4.15;;;19.60;99.90;;;;;;6234740;23;20007;-73
2022/09/14 11:58:56;;;;;;;6.22;3.72;;;19.50;99.90;;;;;;6234998;23;20004;-73
2022/09/14 12:01:27;;;;;;;4.22;3.83;;;19.40;99.90;;;;;;6206618;23;20038;-74
2022/09/14 12:04:05;;;;;;;4.18;3.78;;;19.50;99.90;;;;;;6230377;23;20000;-74
2022/09/14 12:06:30;;;;;;;8.45;4.13;;;19.50;99.90;;;;;;6197430;23;20008;-73
2022/09/14 12:09:15;;;;;;;6.32;4.22;;;19.60;99.90;;;;;;6224873;23;20011;-73
2022/09/14 12:11:43;;;;;;;6.35;3.85;;;19.60;99.90;;;;;;6226897;23;20020;-73
2022/09/14 12:14:39;;;;;;;4.60;3.63;;;19.70;99.90;;;;;;6231674;23;20004;-73
2022/09/14 12:17:28;;;;;;;4.05;3.60;;;19.80;99.90;;;;;;6231276;23;20008;-73
2022/09/14 12:19:59;;;;;;;5.03;4.03;;;19.80;99.90;;;;;;6230579;22;20636;-73
2022/09/14 12:22:35;;;;;;;7.60;4.10;;;19.80;99.90;;;;;;6206911;23;20008;-73
2022/09/14 12:25:02;;;;;;;4.82;4.15;;;19.80;99.90;;;;;;6230180;23;20034;-73
2022/09/14 12:27:34;;;;;;;8.48;3.85;;;19.80;99.90;;;;;;6234180;23;20075;-73
2022/09/14 12:29:59;;;;;;;5.45;3.55;;;19.90;99.90;;;;;;6229973;23;20008;-73
2022/09/14 12:32:41;;;;;;;11.88;3.78;;;20.00;99.90;;;;;;6229511;23;20016;-75
2022/09/14 12:35:38;;;;;;;6.88;3.65;;;20.10;99.90;;;;;;6228938;23;20326;-74
2022/09/14 12:38:28;;;;;;;7.80;3.03;;;20.20;99.90;;;;;;6230489;23;20094;-73
2022/09/14 12:40:58;;;;;;;4.10;3.05;;;20.30;99.90;;;;;;6233071;23;20004;-72
2022/09/14 12:43:36;;;;;;;4.40;3.90;;;20.50;99.90;;;;;;6203305;23;20027;-71
2022/09/14 12:46:19;;;;;;;6.10;3.60;;;20.60;99.90;;;;;;6230201;23;20024;-72
2022/09/14 12:48:48;;;;;;;4.25;3.13;;;20.60;99.90;;;;;;6232564;23;20000;-72
2022/09/14 12:51:31;;;;;;;5.28;3.58;;;20.70;99.90;;;;;;6230805;23;20008;-72
2022/09/14 12:54:04;;;;;;;5.80;3.50;;;20.80;99.90;;;;;;6232213;23;20084;-72
2022/09/14 12:56:35;;;;;;;4.20;3.10;;;20.90;99.90;;;;;;6231732;23;20047;-71
2022/09/14 12:59:45;;;;;;;5.35;2.90;;;21.10;99.90;;;;;;6231840;23;20253;-72
2022/09/14 13:02:48;;;;;;;3.28;2.90;;;21.30;99.90;;;;;;6107012;23;20021;-72
2022/09/14 13:05:19;;;;;;;7.45;3.35;;;21.30;99.90;;;;;;6102057;23;19999;-73
2022/09/14 13:07:45;;;;;;;4.65;3.47;;;21.50;99.90;;;;;;6203914;23;20047;-72
2022/09/14 13:10:49;;;;;;;5.03;3.67;;;21.50;99.90;;;;;;6232461;23;20036;-73